sensor_id;sensor_type;location;lat;lon;timestamp;pressure;altitude;pressure_sealevel;temperature;humidity
72110;BME280;59983;52.010;5.420;2023-12-29T00:01:32;100569.34;;;19.91;62.95
72110;BME280;59983;52.010;5.420;2023-12-29T00:03:59;100574.84;;;19.91;62.94
72110;BME280;59983;52.010;5.420;2023-12-29T00:06:25;100570.97;;;19.89;63.22
72110;BME280;59983;52.010;5.420;2023-12-29T00:08:52;100575.28;;;19.90;62.97
72110;BME280;59983;52.010;5.420;2023-12-29T00:11:19;100577.66;;;19.88;63.11
72110;BME280;59983;52.010;5.420;2023-12-29T00:13:47;100561.53;;;19.86;63.08
72110;BME280;59983;52.010;5.420;2023-12-29T00:16:16;100571.78;;;19.86;63.07
72110;BME280;59983;52.010;5.420;2023-12-29T00:18:43;100559.63;;;19.83;62.90
72110;BME280;59983;52.010;5.420;2023-12-29T00:21:10;100555.69;;;19.84;63.00
72110;BME280;59983;52.010;5.420;2023-12-29T00:23:37;100545.09;;;19.83;63.06
72110;BME280;59983;52.010;5.420;2023-12-29T00:26:04;100561.25;;;19.80;62.92
72110;BME280;59983;52.010;5.420;2023-12-29T00:28:30;100552.22;;;19.80;62.88
72110;BME280;59983;52.010;5.420;2023-12-29T00:30:57;100549.84;;;19.78;63.14
72110;BME280;59983;52.010;5.420;2023-12-29T00:33:28;100545.16;;;19.79;63.02
72110;BME280;59983;52.010;5.420;2023-12-29T00:35:56;100564.81;;;19.77;63.10
72110;BME280;59983;52.010;5.420;2023-12-29T00:38:23;100566.00;;;19.76;63.11
72110;BME280;59983;52.010;5.420;2023-12-29T00:40:49;100566.44;;;19.75;62.99
72110;BME280;59983;52.010;5.420;2023-12-29T00:43:16;100553.88;;;19.74;62.99
72110;BME280;59983;52.010;5.420;2023-12-29T00:45:44;100546.81;;;19.73;63.07
72110;BME280;59983;52.010;5.420;2023-12-29T00:48:10;100546.03;;;19.72;63.03
72110;BME280;59983;52.010;5.420;2023-12-29T00:50:37;100551.16;;;19.70;63.23
72110;BME280;59983;52.010;5.420;2023-12-29T00:53:04;100541.34;;;19.69;63.20
72110;BME280;59983;52.010;5.420;2023-12-29T00:55:30;100535.06;;;19.69;63.29
72110;BME280;59983;52.010;5.420;2023-12-29T00:57:57;100543.31;;;19.69;63.18
72110;BME280;59983;52.010;5.420;2023-12-29T01:00:24;100540.19;;;19.67;63.17
72110;BME280;59983;52.010;5.420;2023-12-29T01:02:51;100531.94;;;19.67;63.31
72110;BME280;59983;52.010;5.420;2023-12-29T01:05:17;100532.34;;;19.65;63.07
72110;BME280;59983;52.010;5.420;2023-12-29T01:07:44;100536.31;;;19.64;63.20
72110;BME280;59983;52.010;5.420;2023-12-29T01:10:11;100530.03;;;19.64;63.02
72110;BME280;59983;52.010;5.420;2023-12-29T01:12:37;100517.84;;;19.61;63.03
72110;BME280;59983;52.010;5.420;2023-12-29T01:15:04;100523.34;;;19.61;63.04
72110;BME280;59983;52.010;5.420;2023-12-29T01:17:31;100530.06;;;19.60;63.12
72110;BME280;59983;52.010;5.420;2023-12-29T01:19:58;100551.28;;;19.60;63.26
72110;BME280;59983;52.010;5.420;2023-12-29T01:22:24;100528.50;;;19.59;63.29
72110;BME280;59983;52.010;5.420;2023-12-29T01:24:51;100516.38;;;19.57;63.09
72110;BME280;59983;52.010;5.420;2023-12-29T01:27:17;100528.16;;;19.57;63.21
72110;BME280;59983;52.010;5.420;2023-12-29T01:29:44;100529.34;;;19.56;63.20
72110;BME280;59983;52.010;5.420;2023-12-29T01:32:11;100526.97;;;19.55;63.13
72110;BME280;59983;52.010;5.420;2023-12-29T01:34:37;100518.38;;;19.52;63.16
72110;BME280;59983;52.010;5.420;2023-12-29T01:37:04;100514.81;;;19.52;63.17
72110;BME280;59983;52.010;5.420;2023-12-29T01:39:33;100511.28;;;19.51;63.21
72110;BME280;59983;52.010;5.420;2023-12-29T01:42:00;100506.97;;;19.50;63.16
72110;BME280;59983;52.010;5.420;2023-12-29T01:44:26;100506.19;;;19.50;63.15
72110;BME280;59983;52.010;5.420;2023-12-29T01:46:55;100502.31;;;19.47;63.28
72110;BME280;59983;52.010;5.420;2023-12-29T01:49:22;100505.84;;;19.48;63.21
72110;BME280;59983;52.010;5.420;2023-12-29T01:51:52;100516.06;;;19.47;63.18
72110;BME280;59983;52.010;5.420;2023-12-29T01:54:20;100530.25;;;19.46;63.33
72110;BME280;59983;52.010;5.420;2023-12-29T01:56:49;100524.75;;;19.46;63.31
72110;BME280;59983;52.010;5.420;2023-12-29T01:59:16;100525.94;;;19.45;63.05
72110;BME280;59983;52.010;5.420;2023-12-29T02:01:53;100525.16;;;19.44;63.18
72110;BME280;59983;52.010;5.420;2023-12-29T02:04:23;100539.28;;;19.43;63.19
72110;BME280;59983;52.010;5.420;2023-12-29T02:06:51;100526.75;;;19.42;63.09
72110;BME280;59983;52.010;5.420;2023-12-29T02:09:18;100528.72;;;19.41;63.18
72110;BME280;59983;52.010;5.420;2023-12-29T02:11:48;100517.34;;;19.39;63.12
72110;BME280;59983;52.010;5.420;2023-12-29T02:14:16;100530.31;;;19.39;63.05
72110;BME280;59983;52.010;5.420;2023-12-29T02:19:40;100533.50;;;19.37;63.35
72110;BME280;59983;52.010;5.420;2023-12-29T02:22:08;100531.53;;;19.38;63.18
72110;BME280;59983;52.010;5.420;2023-12-29T02:24:36;100532.72;;;19.37;63.52
72110;BME280;59983;52.010;5.420;2023-12-29T02:27:12;100540.59;;;19.35;63.20
72110;BME280;59983;52.010;5.420;2023-12-29T02:29:46;100543.34;;;19.35;63.40
72110;BME280;59983;52.010;5.420;2023-12-29T02:32:18;100542.97;;;19.33;63.35
72110;BME280;59983;52.010;5.420;2023-12-29T02:34:47;100544.56;;;19.30;63.29
72110;BME280;59983;52.010;5.420;2023-12-29T02:37:15;100551.22;;;19.33;63.29
72110;BME280;59983;52.010;5.420;2023-12-29T02:39:43;100541.41;;;19.32;63.38
72110;BME280;59983;52.010;5.420;2023-12-29T02:42:10;100526.53;;;19.29;63.35
72110;BME280;59983;52.010;5.420;2023-12-29T02:44:37;100534.00;;;19.29;63.35
72110;BME280;59983;52.010;5.420;2023-12-29T02:47:04;100525.75;;;19.29;63.50
72110;BME280;59983;52.010;5.420;2023-12-29T02:49:30;100526.94;;;19.28;63.52
72110;BME280;59983;52.010;5.420;2023-12-29T02:51:57;100523.78;;;19.25;63.53
72110;BME280;59983;52.010;5.420;2023-12-29T02:54:24;100517.13;;;19.27;63.65
72110;BME280;59983;52.010;5.420;2023-12-29T02:56:50;100509.28;;;19.25;63.60
72110;BME280;59983;52.010;5.420;2023-12-29T02:59:17;100504.97;;;19.24;63.69
72110;BME280;59983;52.010;5.420;2023-12-29T03:01:43;100507.72;;;19.24;63.74
72110;BME280;59983;52.010;5.420;2023-12-29T03:04:10;100501.44;;;19.23;63.77
72110;BME280;59983;52.010;5.420;2023-12-29T03:06:36;100519.13;;;19.22;63.74
72110;BME280;59983;52.010;5.420;2023-12-29T03:09:03;100512.84;;;19.22;63.87
72110;BME280;59983;52.010;5.420;2023-12-29T03:11:30;100523.06;;;19.21;64.02
72110;BME280;59983;52.010;5.420;2023-12-29T03:13:56;100519.97;;;19.19;64.01
72110;BME280;59983;52.010;5.420;2023-12-29T03:16:23;100519.19;;;19.19;63.98
72110;BME280;59983;52.010;5.420;2023-12-29T03:18:49;100510.53;;;19.17;64.21
72110;BME280;59983;52.010;5.420;2023-12-29T03:21:16;100528.63;;;19.18;64.01
72110;BME280;59983;52.010;5.420;2023-12-29T03:23:42;100538.03;;;19.17;64.17
72110;BME280;59983;52.010;5.420;2023-12-29T03:26:09;100538.47;;;19.15;64.05
72110;BME280;59983;52.010;5.420;2023-12-29T03:28:35;100536.47;;;19.16;64.09
72110;BME280;59983;52.010;5.420;2023-12-29T03:31:02;100534.94;;;19.15;64.22
72110;BME280;59983;52.010;5.420;2023-12-29T03:33:30;100534.16;;;19.14;64.27
72110;BME280;59983;52.010;5.420;2023-12-29T03:35:56;100539.66;;;19.14;64.17
72110;BME280;59983;52.010;5.420;2023-12-29T03:38:23;100533.78;;;19.12;64.32
72110;BME280;59983;52.010;5.420;2023-12-29T03:40:49;100542.03;;;19.12;64.29
72110;BME280;59983;52.010;5.420;2023-12-29T03:43:16;100531.03;;;19.12;64.49
72110;BME280;59983;52.010;5.420;2023-12-29T03:45:42;100527.94;;;19.10;64.34
72110;BME280;59983;52.010;5.420;2023-12-29T03:48:09;100534.19;;;19.11;64.52
72110;BME280;59983;52.010;5.420;2023-12-29T03:50:36;100545.63;;;19.09;64.53
72110;BME280;59983;52.010;5.420;2023-12-29T03:53:03;100533.84;;;19.09;64.60
72110;BME280;59983;52.010;5.420;2023-12-29T03:55:30;100536.59;;;19.09;64.61
72110;BME280;59983;52.010;5.420;2023-12-29T03:57:56;100532.66;;;19.06;64.64
72110;BME280;59983;52.010;5.420;2023-12-29T04:00:24;100526.75;;;19.08;64.63
72110;BME280;59983;52.010;5.420;2023-12-29T04:02:50;100522.06;;;19.08;64.65
72110;BME280;59983;52.010;5.420;2023-12-29T04:05:17;100511.88;;;19.05;64.64
72110;BME280;59983;52.010;5.420;2023-12-29T04:07:43;100518.94;;;19.06;64.65
72110;BME280;59983;52.010;5.420;2023-12-29T04:10:10;100521.31;;;19.04;64.65
72110;BME280;59983;52.010;5.420;2023-12-29T04:12:37;100516.59;;;19.05;64.68
72110;BME280;59983;52.010;5.420;2023-12-29T04:15:04;100500.09;;;19.05;64.89
72110;BME280;59983;52.010;5.420;2023-12-29T04:17:31;100513.06;;;19.04;64.68
72110;BME280;59983;52.010;5.420;2023-12-29T04:19:57;100500.50;;;19.03;64.73
72110;BME280;59983;52.010;5.420;2023-12-29T04:22:24;100512.69;;;19.02;64.89
72110;BME280;59983;52.010;5.420;2023-12-29T04:24:51;100513.91;;;19.01;64.91
72110;BME280;59983;52.010;5.420;2023-12-29T04:27:17;100507.63;;;19.01;64.77
72110;BME280;59983;52.010;5.420;2023-12-29T04:29:44;100514.31;;;19.00;64.93
72110;BME280;59983;52.010;5.420;2023-12-29T04:32:11;100512.34;;;19.00;64.85
72110;BME280;59983;52.010;5.420;2023-12-29T04:34:38;100514.31;;;19.00;65.02
72110;BME280;59983;52.010;5.420;2023-12-29T04:37:04;100515.47;;;18.99;64.89
72110;BME280;59983;52.010;5.420;2023-12-29T04:39:31;100518.63;;;18.97;65.08
72110;BME280;59983;52.010;5.420;2023-12-29T04:41:58;100519.41;;;18.98;65.05
72110;BME280;59983;52.010;5.420;2023-12-29T04:44:24;100518.28;;;18.95;65.03
72110;BME280;59983;52.010;5.420;2023-12-29T04:46:51;100524.56;;;18.95;65.12
72110;BME280;59983;52.010;5.420;2023-12-29T04:49:17;100520.59;;;18.96;65.10
72110;BME280;59983;52.010;5.420;2023-12-29T04:51:44;100522.22;;;18.94;65.15
72110;BME280;59983;52.010;5.420;2023-12-29T04:54:11;100532.44;;;18.93;65.12
72110;BME280;59983;52.010;5.420;2023-12-29T04:56:37;100510.84;;;18.92;65.20
72110;BME280;59983;52.010;5.420;2023-12-29T04:59:04;100518.31;;;18.91;65.03
72110;BME280;59983;52.010;5.420;2023-12-29T05:01:30;100515.56;;;18.91;65.07
72110;BME280;59983;52.010;5.420;2023-12-29T05:03:57;100517.56;;;18.91;65.14
72110;BME280;59983;52.010;5.420;2023-12-29T05:06:23;100515.97;;;18.90;65.19
72110;BME280;59983;52.010;5.420;2023-12-29T05:08:50;100511.66;;;18.89;65.29
72110;BME280;59983;52.010;5.420;2023-12-29T05:11:16;100517.94;;;18.89;65.32
72110;BME280;59983;52.010;5.420;2023-12-29T05:13:43;100510.09;;;18.88;65.26
72110;BME280;59983;52.010;5.420;2023-12-29T05:16:10;100512.84;;;18.88;65.20
72110;BME280;59983;52.010;5.420;2023-12-29T05:18:37;100509.31;;;18.87;65.47
72110;BME280;59983;52.010;5.420;2023-12-29T05:21:03;100514.03;;;18.87;65.32
72110;BME280;59983;52.010;5.420;2023-12-29T05:23:30;100525.03;;;18.87;65.44
72110;BME280;59983;52.010;5.420;2023-12-29T05:25:57;100506.22;;;18.85;65.46
72110;BME280;59983;52.010;5.420;2023-12-29T05:28:23;100521.91;;;18.85;65.36
72110;BME280;59983;52.010;5.420;2023-12-29T05:30:50;100523.91;;;18.84;65.36
72110;BME280;59983;52.010;5.420;2023-12-29T05:33:16;100525.09;;;18.83;65.33
72110;BME280;59983;52.010;5.420;2023-12-29T05:35:43;100527.06;;;18.83;65.42
72110;BME280;59983;52.010;5.420;2023-12-29T05:38:10;100519.59;;;18.83;65.56
72110;BME280;59983;52.010;5.420;2023-12-29T05:40:36;100516.06;;;18.83;65.32
72110;BME280;59983;52.010;5.420;2023-12-29T05:43:03;100516.44;;;18.81;65.53
72110;BME280;59983;52.010;5.420;2023-12-29T05:45:29;100516.44;;;18.81;65.41
72110;BME280;59983;52.010;5.420;2023-12-29T05:47:56;100498.81;;;18.79;65.45
72110;BME280;59983;52.010;5.420;2023-12-29T05:50:23;100507.84;;;18.79;65.57
72110;BME280;59983;52.010;5.420;2023-12-29T05:52:50;100506.28;;;18.78;65.52
72110;BME280;59983;52.010;5.420;2023-12-29T05:55:18;100500.41;;;18.76;65.57
72110;BME280;59983;52.010;5.420;2023-12-29T05:57:45;100522.00;;;18.78;65.52
72110;BME280;59983;52.010;5.420;2023-12-29T06:00:12;100511.00;;;18.78;65.56
72110;BME280;59983;52.010;5.420;2023-12-29T06:02:41;100512.59;;;18.75;65.49
72110;BME280;59983;52.010;5.420;2023-12-29T06:05:11;100508.66;;;18.76;65.49
72110;BME280;59983;52.010;5.420;2023-12-29T06:07:39;100503.59;;;18.75;65.61
72110;BME280;59983;52.010;5.420;2023-12-29T06:10:05;100506.75;;;18.73;65.46
72110;BME280;59983;52.010;5.420;2023-12-29T06:12:32;100491.81;;;18.74;65.58
72110;BME280;59983;52.010;5.420;2023-12-29T06:14:59;100500.44;;;18.73;65.71
72110;BME280;59983;52.010;5.420;2023-12-29T06:17:26;100499.66;;;18.72;65.51
72110;BME280;59983;52.010;5.420;2023-12-29T06:19:52;100489.09;;;18.71;65.54
72110;BME280;59983;52.010;5.420;2023-12-29T06:22:19;100504.38;;;18.72;65.63
72110;BME280;59983;52.010;5.420;2023-12-29T06:24:46;100492.63;;;18.71;65.56
72110;BME280;59983;52.010;5.420;2023-12-29T06:27:12;100487.53;;;18.70;65.61
72110;BME280;59983;52.010;5.420;2023-12-29T06:29:41;100506.75;;;18.70;65.60
72110;BME280;59983;52.010;5.420;2023-12-29T06:32:08;100496.19;;;18.68;65.69
72110;BME280;59983;52.010;5.420;2023-12-29T06:34:34;100486.75;;;18.69;65.55
72110;BME280;59983;52.010;5.420;2023-12-29T06:37:03;100509.16;;;18.67;65.56
72110;BME280;59983;52.010;5.420;2023-12-29T06:39:29;100501.69;;;18.68;65.50
72110;BME280;59983;52.010;5.420;2023-12-29T06:41:56;100516.63;;;18.67;65.64
72110;BME280;59983;52.010;5.420;2023-12-29T06:44:22;100516.59;;;18.63;65.53
72110;BME280;59983;52.010;5.420;2023-12-29T06:46:49;100513.50;;;18.65;65.59
72110;BME280;59983;52.010;5.420;2023-12-29T06:49:15;100519.34;;;18.63;65.54
72110;BME280;59983;52.010;5.420;2023-12-29T06:51:42;100503.66;;;18.64;65.52
72110;BME280;59983;52.010;5.420;2023-12-29T06:54:09;100511.53;;;18.62;65.55
72110;BME280;59983;52.010;5.420;2023-12-29T06:56:35;100505.63;;;18.63;65.68
72110;BME280;59983;52.010;5.420;2023-12-29T06:59:02;100510.75;;;18.61;65.55
72110;BME280;59983;52.010;5.420;2023-12-29T07:01:28;100505.66;;;18.60;65.58
72110;BME280;59983;52.010;5.420;2023-12-29T07:03:55;100501.72;;;18.61;65.61
72110;BME280;59983;52.010;5.420;2023-12-29T07:06:22;100500.94;;;18.60;65.62
72110;BME280;59983;52.010;5.420;2023-12-29T07:08:49;100491.94;;;18.60;65.60
72110;BME280;59983;52.010;5.420;2023-12-29T07:11:15;100482.13;;;18.59;65.56
72110;BME280;59983;52.010;5.420;2023-12-29T07:13:42;100488.81;;;18.58;65.61
72110;BME280;59983;52.010;5.420;2023-12-29T07:16:08;100490.78;;;18.57;65.65
72110;BME280;59983;52.010;5.420;2023-12-29T07:18:35;100488.03;;;18.57;65.76
72110;BME280;59983;52.010;5.420;2023-12-29T07:21:02;100488.81;;;18.58;65.71
72110;BME280;59983;52.010;5.420;2023-12-29T07:23:29;100500.22;;;18.56;65.70
72110;BME280;59983;52.010;5.420;2023-12-29T07:25:56;100499.81;;;18.54;65.74
72110;BME280;59983;52.010;5.420;2023-12-29T07:28:22;100495.09;;;18.55;65.80
72110;BME280;59983;52.010;5.420;2023-12-29T07:30:49;100502.56;;;18.54;65.79
72110;BME280;59983;52.010;5.420;2023-12-29T07:33:16;100509.66;;;18.55;65.73
72110;BME280;59983;52.010;5.420;2023-12-29T07:35:42;100506.91;;;18.55;65.99
72110;BME280;59983;52.010;5.420;2023-12-29T07:38:09;100516.31;;;18.54;66.00
72110;BME280;59983;52.010;5.420;2023-12-29T07:40:35;100507.69;;;18.56;66.38
72110;BME280;59983;52.010;5.420;2023-12-29T07:43:02;100519.44;;;18.56;66.74
72110;BME280;59983;52.010;5.420;2023-12-29T07:45:29;100515.91;;;18.56;66.90
72110;BME280;59983;52.010;5.420;2023-12-29T07:47:55;100513.16;;;18.56;67.07
72110;BME280;59983;52.010;5.420;2023-12-29T07:50:22;100502.19;;;18.56;67.00
72110;BME280;59983;52.010;5.420;2023-12-29T07:52:49;100498.66;;;18.55;66.80
72110;BME280;59983;52.010;5.420;2023-12-29T07:55:15;100510.81;;;18.54;66.74
72110;BME280;59983;52.010;5.420;2023-12-29T07:57:45;100520.63;;;18.55;66.47
72110;BME280;59983;52.010;5.420;2023-12-29T08:00:16;100502.97;;;18.56;66.44
72110;BME280;59983;52.010;5.420;2023-12-29T08:02:43;100507.69;;;18.56;66.51
72110;BME280;59983;52.010;5.420;2023-12-29T08:05:09;100506.09;;;18.55;66.70
72110;BME280;59983;52.010;5.420;2023-12-29T08:07:36;100512.78;;;18.54;66.60
72110;BME280;59983;52.010;5.420;2023-12-29T08:10:07;100507.69;;;18.56;66.54
72110;BME280;59983;52.010;5.420;2023-12-29T08:12:33;100498.66;;;18.55;66.61
72110;BME280;59983;52.010;5.420;2023-12-29T08:15:01;100506.09;;;18.55;66.46
72110;BME280;59983;52.010;5.420;2023-12-29T08:17:29;100509.66;;;18.55;66.59
72110;BME280;59983;52.010;5.420;2023-12-29T08:19:55;100528.88;;;18.55;66.73
72110;BME280;59983;52.010;5.420;2023-12-29T08:22:22;100506.50;;;18.53;67.00
72110;BME280;59983;52.010;5.420;2023-12-29T08:24:48;100514.31;;;18.55;67.35
72110;BME280;59983;52.010;5.420;2023-12-29T08:27:23;100510.41;;;18.56;67.43
72110;BME280;59983;52.010;5.420;2023-12-29T08:29:50;100533.94;;;18.57;67.39
72110;BME280;59983;52.010;5.420;2023-12-29T08:32:17;100535.50;;;18.58;67.63
72110;BME280;59983;52.010;5.420;2023-12-29T08:34:43;100531.97;;;18.57;67.96
72110;BME280;59983;52.010;5.420;2023-12-29T08:37:10;100525.31;;;18.58;67.83
72110;BME280;59983;52.010;5.420;2023-12-29T08:39:36;100533.53;;;18.58;68.54
72110;BME280;59983;52.010;5.420;2023-12-29T08:42:03;100535.09;;;18.59;68.38
72110;BME280;59983;52.010;5.420;2023-12-29T08:44:30;100532.72;;;18.61;68.16
72110;BME280;59983;52.010;5.420;2023-12-29T08:46:56;100526.84;;;18.59;68.16
72110;BME280;59983;52.010;5.420;2023-12-29T08:49:23;100527.63;;;18.60;68.27
72110;BME280;59983;52.010;5.420;2023-12-29T08:51:50;100529.59;;;18.59;68.17
72110;BME280;59983;52.010;5.420;2023-12-29T08:54:16;100526.44;;;18.61;68.16
72110;BME280;59983;52.010;5.420;2023-12-29T08:56:43;100528.03;;;18.58;68.12
72110;BME280;59983;52.010;5.420;2023-12-29T08:59:09;100524.88;;;18.60;68.25
72110;BME280;59983;52.010;5.420;2023-12-29T09:01:36;100534.31;;;18.59;68.19
72110;BME280;59983;52.010;5.420;2023-12-29T09:04:03;100535.09;;;18.59;68.30
72110;BME280;59983;52.010;5.420;2023-12-29T09:06:30;100532.75;;;18.58;68.21
72110;BME280;59983;52.010;5.420;2023-12-29T09:08:57;100525.72;;;18.57;68.39
72110;BME280;59983;52.010;5.420;2023-12-29T09:11:24;100527.69;;;18.56;68.04
72110;BME280;59983;52.010;5.420;2023-12-29T09:13:51;100533.19;;;18.56;67.72
72110;BME280;59983;52.010;5.420;2023-12-29T09:16:17;100524.53;;;18.54;67.62
72110;BME280;59983;52.010;5.420;2023-12-29T09:18:44;100540.66;;;18.52;67.54
72110;BME280;59983;52.010;5.420;2023-12-29T09:21:11;100540.28;;;18.50;67.62
72110;BME280;59983;52.010;5.420;2023-12-29T09:23:38;100554.38;;;18.52;67.50
72110;BME280;59983;52.010;5.420;2023-12-29T09:26:05;100548.53;;;18.50;67.49
72110;BME280;59983;52.010;5.420;2023-12-29T09:28:32;100543.81;;;18.51;67.57
72110;BME280;59983;52.010;5.420;2023-12-29T09:30:59;100547.75;;;18.50;67.97
72110;BME280;59983;52.010;5.420;2023-12-29T09:33:27;100546.97;;;18.49;67.69
72110;BME280;59983;52.010;5.420;2023-12-29T09:35:54;100553.66;;;18.48;68.07
72110;BME280;59983;52.010;5.420;2023-12-29T09:38:21;100555.63;;;18.48;68.27
72110;BME280;59983;52.010;5.420;2023-12-29T09:40:47;100561.13;;;18.48;68.27
72110;BME280;59983;52.010;5.420;2023-12-29T09:43:16;100560.34;;;18.47;68.26
72110;BME280;59983;52.010;5.420;2023-12-29T09:45:44;100568.53;;;18.51;68.24
72110;BME280;59983;52.010;5.420;2023-12-29T09:48:15;100563.81;;;18.51;68.13
72110;BME280;59983;52.010;5.420;2023-12-29T09:50:43;100569.28;;;18.55;68.23
72110;BME280;59983;52.010;5.420;2023-12-29T09:53:11;100575.53;;;18.59;68.51
72110;BME280;59983;52.010;5.420;2023-12-29T09:55:40;100569.22;;;18.62;68.54
72110;BME280;59983;52.010;5.420;2023-12-29T09:58:09;100564.88;;;18.68;68.52
72110;BME280;59983;52.010;5.420;2023-12-29T10:00:38;100559.72;;;18.74;68.53
72110;BME280;59983;52.010;5.420;2023-12-29T10:03:05;100569.47;;;18.82;68.40
72110;BME280;59983;52.010;5.420;2023-12-29T10:05:32;100576.81;;;18.92;68.44
72110;BME280;59983;52.010;5.420;2023-12-29T10:08:02;100569.66;;;18.98;68.24
72110;BME280;59983;52.010;5.420;2023-12-29T10:10:30;100582.13;;;19.10;68.32
72110;BME280;59983;52.010;5.420;2023-12-29T10:12:57;100567.91;;;19.18;67.88
72110;BME280;59983;52.010;5.420;2023-12-29T10:15:55;100570.47;;;19.33;67.74
72110;BME280;59983;52.010;5.420;2023-12-29T10:18:28;100580.16;;;19.44;67.39
72110;BME280;59983;52.010;5.420;2023-12-29T10:21:05;100573.75;;;19.55;67.32
72110;BME280;59983;52.010;5.420;2023-12-29T10:23:42;100575.94;;;19.70;67.09
72110;BME280;59983;52.010;5.420;2023-12-29T10:26:13;100581.28;;;19.81;66.76
72110;BME280;59983;52.010;5.420;2023-12-29T10:28:40;100574.50;;;19.89;66.63
72110;BME280;59983;52.010;5.420;2023-12-29T10:31:09;100564.53;;;19.99;66.49
72110;BME280;59983;52.010;5.420;2023-12-29T10:33:36;100569.50;;;20.07;66.28
72110;BME280;59983;52.010;5.420;2023-12-29T10:36:03;100576.88;;;20.14;65.88
72110;BME280;59983;52.010;5.420;2023-12-29T10:38:33;100566.94;;;20.20;65.94
72110;BME280;59983;52.010;5.420;2023-12-29T10:41:13;100579.75;;;20.30;65.81
72110;BME280;59983;52.010;5.420;2023-12-29T10:43:42;100582.06;;;20.35;65.58
72110;BME280;59983;52.010;5.420;2023-12-29T10:46:10;100585.94;;;20.38;65.50
72110;BME280;59983;52.010;5.420;2023-12-29T10:48:37;100585.53;;;20.40;65.46
72110;BME280;59983;52.010;5.420;2023-12-29T10:51:05;100585.91;;;20.42;65.89
72110;BME280;59983;52.010;5.420;2023-12-29T10:53:36;100584.31;;;20.44;65.79
72110;BME280;59983;52.010;5.420;2023-12-29T10:56:17;100576.41;;;20.46;65.81
72110;BME280;59983;52.010;5.420;2023-12-29T10:59:03;100571.66;;;20.47;65.79
72110;BME280;59983;52.010;5.420;2023-12-29T11:01:34;100582.66;;;20.50;65.60
72110;BME280;59983;52.010;5.420;2023-12-29T11:04:02;100584.56;;;20.53;65.84
72110;BME280;59983;52.010;5.420;2023-12-29T11:06:40;100589.22;;;20.56;65.53
72110;BME280;59983;52.010;5.420;2023-12-29T11:09:07;100588.78;;;20.58;65.51
72110;BME280;59983;52.010;5.420;2023-12-29T11:11:34;100593.91;;;20.59;65.46
72110;BME280;59983;52.010;5.420;2023-12-29T11:14:02;100587.53;;;20.62;65.20
72110;BME280;59983;52.010;5.420;2023-12-29T11:16:30;100603.22;;;20.65;65.21
72110;BME280;59983;52.010;5.420;2023-12-29T11:18:58;100596.94;;;20.65;65.07
72110;BME280;59983;52.010;5.420;2023-12-29T11:21:26;100589.88;;;20.64;65.03
72110;BME280;59983;52.010;5.420;2023-12-29T11:23:53;100598.94;;;20.64;65.17
72110;BME280;59983;52.010;5.420;2023-12-29T11:26:20;100594.97;;;20.65;65.08
72110;BME280;59983;52.010;5.420;2023-12-29T11:28:47;100596.94;;;20.65;65.24
72110;BME280;59983;52.010;5.420;2023-12-29T11:31:18;100595.38;;;20.64;64.92
72110;BME280;59983;52.010;5.420;2023-12-29T11:33:53;100592.63;;;20.64;64.88
72110;BME280;59983;52.010;5.420;2023-12-29T11:36:26;100599.69;;;20.65;65.24
72110;BME280;59983;52.010;5.420;2023-12-29T11:39:30;100598.09;;;20.68;64.91
72110;BME280;59983;52.010;5.420;2023-12-29T11:42:07;100602.81;;;20.67;65.34
72110;BME280;59983;52.010;5.420;2023-12-29T11:44:39;100601.25;;;20.66;65.24
72110;BME280;59983;52.010;5.420;2023-12-29T11:47:35;100604.44;;;20.64;65.22
72110;BME280;59983;52.010;5.420;2023-12-29T11:50:02;100600.56;;;20.62;65.30
72110;BME280;59983;52.010;5.420;2023-12-29T11:52:34;100590.38;;;20.59;65.49
72110;BME280;59983;52.010;5.420;2023-12-29T11:55:11;100599.81;;;20.58;65.66
72110;BME280;59983;52.010;5.420;2023-12-29T11:57:39;100595.94;;;20.55;65.79
72110;BME280;59983;52.010;5.420;2023-12-29T12:00:08;100594.38;;;20.54;65.82
72110;BME280;59983;52.010;5.420;2023-12-29T12:02:35;100588.50;;;20.52;65.70
72110;BME280;59983;52.010;5.420;2023-12-29T12:05:02;100591.25;;;20.52;65.85
72110;BME280;59983;52.010;5.420;2023-12-29T12:12:59;100586.22;;;20.47;65.84
72110;BME280;59983;52.010;5.420;2023-12-29T12:17:54;100582.34;;;20.45;65.88
72110;BME280;59983;52.010;5.420;2023-12-29T12:20:20;100578.03;;;20.44;65.76
72110;BME280;59983;52.010;5.420;2023-12-29T12:22:59;100578.41;;;20.42;66.13
72110;BME280;59983;52.010;5.420;2023-12-29T12:25:28;100573.72;;;20.39;65.91
72110;BME280;59983;52.010;5.420;2023-12-29T12:27:56;100575.69;;;20.38;66.24
72110;BME280;59983;52.010;5.420;2023-12-29T12:30:23;100577.25;;;20.40;66.17
72110;BME280;59983;52.010;5.420;2023-12-29T12:32:59;100570.63;;;20.37;66.12
72110;BME280;59983;52.010;5.420;2023-12-29T12:35:27;100571.03;;;20.35;66.30
72110;BME280;59983;52.010;5.420;2023-12-29T12:38:16;100565.53;;;20.35;66.06
72110;BME280;59983;52.010;5.420;2023-12-29T12:40:50;100564.41;;;20.33;66.26
72110;BME280;59983;52.010;5.420;2023-12-29T12:43:17;100562.41;;;20.33;66.25
72110;BME280;59983;52.010;5.420;2023-12-29T12:45:48;100556.13;;;20.33;66.23
72110;BME280;59983;52.010;5.420;2023-12-29T12:48:23;100553.78;;;20.31;66.35
72110;BME280;59983;52.010;5.420;2023-12-29T12:50:50;100549.47;;;20.30;66.51
72110;BME280;59983;52.010;5.420;2023-12-29T12:53:17;100546.78;;;20.27;66.61
72110;BME280;59983;52.010;5.420;2023-12-29T12:55:48;100563.31;;;20.27;66.15
72110;BME280;59983;52.010;5.420;2023-12-29T12:58:18;100566.06;;;20.27;66.51
72110;BME280;59983;52.010;5.420;2023-12-29T13:00:47;100569.25;;;20.25;66.42
72110;BME280;59983;52.010;5.420;2023-12-29T13:03:18;100567.69;;;20.24;66.25
72110;BME280;59983;52.010;5.420;2023-12-29T13:05:45;100559.81;;;20.23;66.50